Skip Navigation Links
NOAA logo - Click to go to the NOAA homepage
NOAA's National Weather Service
Alaska Aviation Weather Unit
  NWS logo - Click to go to the NWS homepage
Left Navbar Graphic     19 AKDT = 03 GMT

   
NOAA is celebrating 200 years of science, service, and stewardship. Visit the NOAA 200th celebration Web site to learn more.
USA.gov is the U.S. Government's official Web portal to all Federal, state and local government Web resources and services.
Facebook
NWS on Facebook

Important Change Regarding the AAWU Web Presence

 

Over the last several months, the AAWU has been working to navigate its webpages to a nationally supported server. Security, as well as other needs, have necessitated the change.  In the process, we have made an effort to enhance the functionality of our website, as well as some of our products. As of June 20, 2017, aawu.arh.noaa.gov will be discontinued. The new AAWU web address is weather.gov/aawu. It is now live and will run in-parallel with the old site until it is discontinued. Please send any feedback or questions regarding the new webpages to nws.ar.aawu.webauthors@noaa.gov.  Thank you for your patience during this time of transition.
AAWU Home :: Display TAF Add Bookmark
TAF PATC 270400Z 2704/2810 18012G18KT 0400 FG OVC002 QNH3015INS
      TX10/2718Z TN06/2710Z=
PATC 242133Z AUTO 02017KT 1 1/4SM -SN BKN004 OVC016 00/00 A2941=

PATC 242153Z AUTO 02017KT 1 1/2SM -SN OVC004 00/00 A2941=

METAR PATC 242155Z AUTO 02016KT 1 1/2SM -SN OVC004 00/00 A2941=

PATC 242213Z AUTO 02016KT 2SM -SN FEW004 OVC025 00/00 A2940=

PATC 242233Z AUTO 03015KT 2 1/2SM -SN FEW007 OVC031 00/00 A2940=

PATC 242253Z AUTO 02013KT 5SM -RA FEW009 OVC031 00/00 A2940=

METAR PATC 242255Z AUTO 02014KT 5SM -RA FEW003 OVC029 00/00 A2940=

METAR PATC 242355Z AUTO 03012KT 10SM -RA OVC014 01/00 A2940=

METAR PATC 250055Z AUTO 22003KT 10SM -RA OVC005 01/01 A2940=

METAR PATC 250155Z AUTO 15003KT 10SM OVC007 01/01 A2940=

PATC 250213Z AUTO 09004KT 10SM OVC005 01/01 A2940=


NOAA's National Weather Service
Alaska Aviation Weather Unit
6930 Sand Lake Road
Anchorage, AK 99502-1845
Disclaimer
Credits
Glossary
Privacy Policy
About Us
Career Opportunities
Contact AAWU Internet Services Site last modified: April, 17th 2012